x

Mid Superior 60nm North Northeast Hancock, Mi (45001) Wave Buoy

10:50pm - Thu 21st Sep 2017 All times are CDT. -5 hours from GMT.

  • Sig Wave height 0.3ft
  • Average Period 3s
  • Wind
    11mph, 11mph gusts
  • Sea Temp 52°f
  • Air Temp 53°f
  • Sea Pressure 1015.8mb
  • Mid Superior 60nm North Northeast Hancock, Mi
  • Mid Superior 60nm North Northeast Hancock, Mi

More Historic Weather Station data

Upgrade to MSW Pro to gain access to the past 30 days of data for over 8000 Wavebouys and Weather Stations around the globe.

Join

Comparision Forecast

View Surf forecast
   
Thu 09/21 10:50pm 0.3ft  -  3s 11 11 mph 1015.8mb 52f 53f
9:50pm 0.3ft  -  3s 7 9 mph 1016mb 53f 53f
8:50pm 0.3ft  -  4s 9 11 mph 1016.1mb 54f 54f
7:50pm 0.3ft  -  4s 9 11 mph 1016.1mb 55f 56f
6:50pm 0.3ft  -  4s 9 9 mph 1016.2mb 55f 56f
5:50pm 0.3ft  -  4s 7 7 mph 1016.4mb 55f 56f
4:50pm 0.3ft  -  4s 7 7 mph 1016.7mb 55f 56f
3:50pm 0.7ft  -  4s 7 7 mph 1017.2mb 54f 56f
2:50pm 0.7ft  -  4s 7 7 mph 1017.9mb 54f 53f
1:50pm 1ft 5s 4s 7 9 mph 1018.5mb 54f 53f
12:50pm 1ft 5s 4s 2 4 mph 1018.6mb 54f 53f
11:50am 1ft 5s 4s 4 4 mph 1018.8mb 53f 53f
10:50am 1ft 4s 4s 2 2 mph 1018.7mb 52f 51f
9:50am 1ft 4s 4s 2 2 mph 1018.7mb 51f 50f
8:50am 1.3ft 4s 4s 2 4 mph 1018.4mb 51f 51f
7:50am 1.3ft 5s 4s 2 2 mph 1018.4mb 52f 50f
6:50am 1.3ft 5s 4s 4 4 mph 1017.9mb 52f 51f
5:50am 1.3ft 4s 4s 4 4 mph 1017.7mb 53f 51f
4:50am 1.6ft 5s 4s 7 7 mph 1016.4mb 53f 52f
3:50am 1.6ft 5s 4s 7 7 mph 1015.8mb 53f 53f
2:50am 1.6ft 5s 4s 4 7 mph 1015.4mb 53f 53f
1:50am 2ft 5s 4s 4 4 mph 1015.4mb 53f 53f
12:50am 2ft 6s 4s 7 7 mph 1014.8mb 53f 56f
Wed 09/20 11:50pm 2.5ft 6s 5s 2 4 mph 1013.8mb 52f 55f
10:50pm 3ft 6s 5s 7 7 mph 1012.4mb 52f 56f
9:50pm 3ft 6s 5s 7 9 mph 1011.2mb 52f 56f
8:50pm 3ft 6s 5s 7 9 mph 1010.7mb 52f 56f
7:50pm 3ft 6s 5s 11 11 mph 1009.4mb 51f 56f
6:50pm 3.5ft 6s 4s 11 13 mph 1009.1mb 51f 56f
5:50pm 4.5ft 6s 5s 13 16 mph 1008.8mb 51f 56f
4:50pm 4.5ft 6s 5s 18 22 mph 1008.1mb 51f 57f
3:50pm 5ft 6s 5s 22 25 mph 1007.6mb 52f 58f
2:50pm 4.5ft 6s 5s 20 25 mph 1007.7mb 53f 58f
1:50pm 4.5ft 5s 4s 16 18 mph 1008.6mb 54f 58f
12:50pm 4.5ft 6s 4s 16 20 mph 1008.7mb 54f 58f
11:50am 5ft 6s 4s 27 31 mph 1007.8mb 54f 57f
10:50am 4.5ft 5s 4s 27 31 mph 1008.5mb 53f 57f
9:50am 3ft 5s 4s 27 31 mph 1009.2mb 53f 57f
8:50am 3ft 5s 4s 16 18 mph 1012mb 53f 56f
7:50am 3ft 5s 4s 16 18 mph 1011.9mb 53f 57f
6:50am 2.5ft 5s 4s 20 22 mph 1010.8mb 53f 56f
5:50am 2.5ft 5s 4s 16 18 mph 1010.8mb 53f 56f
4:50am 2ft 4s 4s 16 20 mph 1011.2mb 53f 56f
3:50am 2ft 4s 4s 13 16 mph 1011.7mb 53f 56f
2:50am 2ft 4s 4s 16 18 mph 1011.8mb 53f 56f
1:50am 2ft 4s 3s 13 16 mph 1013mb 54f 57f
12:50am 2ft 3s 3s 11 13 mph 1013.2mb 54f 57f
Tue 09/19 11:50pm 2ft 3s 3s 16 18 mph 1013.2mb 54f 57f
10:50pm 1.6ft 3s 3s 16 18 mph 1013.3mb 54f 57f
9:50pm 1.3ft 4s 3s 13 16 mph 1014mb 54f 57f
8:50pm 1.6ft 4s 3s 13 16 mph 1014.6mb 54f 57f
7:50pm 1.3ft 4s  -  13 16 mph 1014.6mb 54f 57f
6:50pm 1.3ft 4s 3s 11 13 mph 1014.6mb 54f 56f
5:50pm 1.3ft 4s 3s 13 13 mph 1015.1mb 54f 56f
4:50pm 1.3ft 4s 3s 11 13 mph 1015.4mb 54f 56f
3:50pm 1.6ft 4s 3s 11 13 mph 1015.7mb 54f 56f
2:50pm 1.6ft 4s 4s 13 16 mph 1016.2mb 54f 56f
1:50pm 1.6ft 4s 4s 13 16 mph 1016.7mb 54f 55f
12:50pm 1.3ft 4s 3s 13 16 mph 1017.3mb 54f 56f
11:50am 1.3ft 3s 3s 13 13 mph 1017.4mb 54f 55f
10:50am 1ft 3s 3s 13 16 mph 1018mb 54f 55f
9:50am 1.3ft 3s 3s 11 13 mph 1018.2mb 54f 56f
8:50am 1.3ft 3s 3s 13 13 mph 1017.7mb 54f 55f
7:50am 1.3ft 3s 3s 13 16 mph 1017.7mb 54f 55f
6:50am 1ft 3s 3s 13 16 mph 1017.8mb 54f 55f
5:50am 1.3ft 3s 3s 13 16 mph 1017.7mb 54f 55f
4:50am 1ft 3s 3s 13 16 mph 1017.7mb 54f 55f
3:50am  -   -   -  11 13 mph 1017.7mb 54f 55f
2:50am 1ft 3s 3s 11 13 mph 1017.8mb 54f 55f
1:50am  -   -   -  13 13 mph 1018.3mb 54f 55f
12:50am 1ft 3s 3s 9 11 mph 1018.7mb 54f 55f
Mon 09/18 11:50pm 1.3ft 3s 3s 7 9 mph 1018.9mb 54f 54f
10:50pm 1ft 3s 3s 11 16 mph 1018.5mb 54f 55f
9:50pm 1ft 3s 3s 11 11 mph 1018.3mb 54f 55f
8:50pm 1ft 3s 3s 11 13 mph 1018.2mb 54f 55f
7:50pm 1ft 3s 3s 9 11 mph 1018.2mb 54f 55f
6:50pm 1ft 2s 3s 13 16 mph 1018.3mb 54f 55f
5:50pm 1ft 4s 3s 13 16 mph 1018.8mb 54f 55f
4:50pm 1ft 4s 3s 11 13 mph 1018.6mb 54f 55f
3:50pm 1ft 4s 3s 9 9 mph 1019.2mb 54f 54f
2:50pm 1ft 4s 3s 7 9 mph 1019.4mb 54f 54f
1:50pm 1.3ft 4s 4s 9 9 mph 1020.2mb 54f 54f
12:50pm 1ft 4s 4s 7 7 mph 1021mb 54f 54f
11:50am 1ft 5s 4s 9 11 mph 1021.4mb 54f 53f
10:50am 1ft 5s 4s 11 11 mph 1021.5mb 54f 53f
9:50am 1.3ft 5s 4s 9 11 mph 1020.9mb 54f 53f
8:50am 1.3ft 5s 4s 7 9 mph 1020.7mb 54f 53f
7:50am 1.6ft 5s 4s 7 9 mph 1021mb 54f 53f
6:50am 2ft 6s 4s 7 9 mph 1020.7mb 53f 53f
5:50am 2ft 6s 4s 2 4 mph 1020.4mb 53f 53f